Terminal Aerodrome Forecast
Issued by NWS Tulsa, OK

Home | Current Version | Previous Version | Text Only | Print | Product List | Glossary On
Versions: 1 2 3 4 5 6 7 8 9 10 11 12
000
FTUS44 KTSA 041720
TAFTUL
TAF
KTUL 041720Z 0418/0518 18012KT P6SM SCT050
     FM050300 15006KT P6SM FEW250
     FM051500 19011KT P6SM SCT050=

USA.gov is the U.S. government's official web portal to all federal, state and local government web resources and services.